sensor_id;sensor_type;location;lat;lon;timestamp;P1;durP1;ratioP1;P2;durP2;ratioP2
6665;SDS011;3369;49.906;8.598;2022-09-03T00:04:46;0.83;;;0.80;;
6665;SDS011;3369;49.906;8.598;2022-09-03T00:07:25;0.90;;;0.77;;
6665;SDS011;3369;49.906;8.598;2022-09-03T00:10:03;1.90;;;1.00;;
6665;SDS011;3369;49.906;8.598;2022-09-03T00:12:33;0.90;;;0.90;;
6665;SDS011;3369;49.906;8.598;2022-09-03T00:15:11;0.90;;;0.90;;
6665;SDS011;3369;49.906;8.598;2022-09-03T00:20:27;1.00;;;0.97;;
6665;SDS011;3369;49.906;8.598;2022-09-03T00:23:21;1.10;;;1.00;;
6665;SDS011;3369;49.906;8.598;2022-09-03T00:28:45;0.70;;;0.70;;
6665;SDS011;3369;49.906;8.598;2022-09-03T00:31:17;0.67;;;0.67;;
6665;SDS011;3369;49.906;8.598;2022-09-03T00:34:18;0.80;;;0.80;;
6665;SDS011;3369;49.906;8.598;2022-09-03T00:36:59;0.77;;;0.77;;
6665;SDS011;3369;49.906;8.598;2022-09-03T00:39:26;1.10;;;0.80;;
6665;SDS011;3369;49.906;8.598;2022-09-03T00:47:45;1.87;;;0.73;;
6665;SDS011;3369;49.906;8.598;2022-09-03T01:01:29;0.80;;;0.80;;
6665;SDS011;3369;49.906;8.598;2022-09-03T01:04:15;2.63;;;0.90;;
6665;SDS011;3369;49.906;8.598;2022-09-03T01:09:49;1.90;;;0.70;;
6665;SDS011;3369;49.906;8.598;2022-09-03T01:15:16;0.63;;;0.63;;
6665;SDS011;3369;49.906;8.598;2022-09-03T01:18:05;0.83;;;0.83;;
6665;SDS011;3369;49.906;8.598;2022-09-03T02:02:40;0.70;;;0.60;;
6665;SDS011;3369;49.906;8.598;2022-09-03T02:05:10;0.77;;;0.77;;
6665;SDS011;3369;49.906;8.598;2022-09-03T02:07:43;0.90;;;0.90;;
6665;SDS011;3369;49.906;8.598;2022-09-03T02:10:12;1.47;;;0.70;;
6665;SDS011;3369;49.906;8.598;2022-09-03T02:12:45;1.00;;;0.90;;
6665;SDS011;3369;49.906;8.598;2022-09-03T02:15:16;1.17;;;1.00;;
6665;SDS011;3369;49.906;8.598;2022-09-03T02:17:44;0.97;;;0.90;;
6665;SDS011;3369;49.906;8.598;2022-09-03T02:20:18;0.90;;;0.80;;
6665;SDS011;3369;49.906;8.598;2022-09-03T02:22:46;2.50;;;0.80;;
6665;SDS011;3369;49.906;8.598;2022-09-03T02:25:13;1.10;;;1.00;;
6665;SDS011;3369;49.906;8.598;2022-09-03T02:27:40;1.20;;;0.70;;
6665;SDS011;3369;49.906;8.598;2022-09-03T02:30:06;1.03;;;0.63;;
6665;SDS011;3369;49.906;8.598;2022-09-03T02:32:32;0.63;;;0.60;;
6665;SDS011;3369;49.906;8.598;2022-09-03T02:34:58;0.83;;;0.80;;
6665;SDS011;3369;49.906;8.598;2022-09-03T02:37:24;1.20;;;0.83;;
6665;SDS011;3369;49.906;8.598;2022-09-03T02:39:50;1.47;;;0.97;;
6665;SDS011;3369;49.906;8.598;2022-09-03T02:42:16;3.40;;;0.93;;
6665;SDS011;3369;49.906;8.598;2022-09-03T02:45:08;0.80;;;0.80;;
6665;SDS011;3369;49.906;8.598;2022-09-03T02:47:40;0.90;;;0.90;;
6665;SDS011;3369;49.906;8.598;2022-09-03T02:50:08;0.87;;;0.73;;
6665;SDS011;3369;49.906;8.598;2022-09-03T02:52:34;0.93;;;0.60;;
6665;SDS011;3369;49.906;8.598;2022-09-03T02:55:00;1.30;;;0.70;;
6665;SDS011;3369;49.906;8.598;2022-09-03T02:57:26;0.70;;;0.70;;
6665;SDS011;3369;49.906;8.598;2022-09-03T02:59:53;0.87;;;0.87;;
6665;SDS011;3369;49.906;8.598;2022-09-03T03:02:18;0.90;;;0.90;;
6665;SDS011;3369;49.906;8.598;2022-09-03T03:04:44;1.00;;;0.90;;
6665;SDS011;3369;49.906;8.598;2022-09-03T03:07:09;1.17;;;1.07;;
6665;SDS011;3369;49.906;8.598;2022-09-03T03:09:35;0.97;;;0.90;;
6665;SDS011;3369;49.906;8.598;2022-09-03T03:12:01;0.70;;;0.70;;
6665;SDS011;3369;49.906;8.598;2022-09-03T03:14:27;1.70;;;0.60;;
6665;SDS011;3369;49.906;8.598;2022-09-03T03:16:52;0.87;;;0.80;;
6665;SDS011;3369;49.906;8.598;2022-09-03T03:19:18;0.60;;;0.60;;
6665;SDS011;3369;49.906;8.598;2022-09-03T03:21:44;1.80;;;1.00;;
6665;SDS011;3369;49.906;8.598;2022-09-03T03:24:09;0.90;;;0.80;;
6665;SDS011;3369;49.906;8.598;2022-09-03T03:26:35;0.90;;;0.90;;
6665;SDS011;3369;49.906;8.598;2022-09-03T03:29:01;0.80;;;0.80;;
6665;SDS011;3369;49.906;8.598;2022-09-03T03:31:28;0.73;;;0.73;;
6665;SDS011;3369;49.906;8.598;2022-09-03T03:33:56;1.50;;;1.00;;
6665;SDS011;3369;49.906;8.598;2022-09-03T03:36:24;0.80;;;0.80;;
6665;SDS011;3369;49.906;8.598;2022-09-03T03:38:54;0.70;;;0.60;;
6665;SDS011;3369;49.906;8.598;2022-09-03T03:41:23;0.77;;;0.77;;
6665;SDS011;3369;49.906;8.598;2022-09-03T03:43:54;0.80;;;0.73;;
6665;SDS011;3369;49.906;8.598;2022-09-03T03:46:21;0.80;;;0.80;;
6665;SDS011;3369;49.906;8.598;2022-09-03T03:48:48;0.83;;;0.83;;
6665;SDS011;3369;49.906;8.598;2022-09-03T03:51:14;0.80;;;0.70;;
6665;SDS011;3369;49.906;8.598;2022-09-03T03:53:40;0.80;;;0.80;;
6665;SDS011;3369;49.906;8.598;2022-09-03T03:56:07;1.20;;;1.00;;
6665;SDS011;3369;49.906;8.598;2022-09-03T03:58:34;0.90;;;0.87;;
6665;SDS011;3369;49.906;8.598;2022-09-03T04:01:11;1.10;;;1.00;;
6665;SDS011;3369;49.906;8.598;2022-09-03T04:03:38;1.83;;;1.00;;
6665;SDS011;3369;49.906;8.598;2022-09-03T04:06:04;0.87;;;0.87;;
6665;SDS011;3369;49.906;8.598;2022-09-03T04:08:32;0.70;;;0.70;;
6665;SDS011;3369;49.906;8.598;2022-09-03T04:11:00;1.67;;;0.90;;
6665;SDS011;3369;49.906;8.598;2022-09-03T04:13:28;0.90;;;0.90;;
6665;SDS011;3369;49.906;8.598;2022-09-03T04:16:03;1.00;;;0.80;;
6665;SDS011;3369;49.906;8.598;2022-09-03T04:18:31;0.80;;;0.80;;
6665;SDS011;3369;49.906;8.598;2022-09-03T04:20:58;0.67;;;0.67;;
6665;SDS011;3369;49.906;8.598;2022-09-03T04:23:29;0.70;;;0.70;;
6665;SDS011;3369;49.906;8.598;2022-09-03T04:25:56;1.27;;;1.17;;
6665;SDS011;3369;49.906;8.598;2022-09-03T04:28:21;2.67;;;1.90;;
6665;SDS011;3369;49.906;8.598;2022-09-03T04:30:47;2.47;;;1.37;;
6665;SDS011;3369;49.906;8.598;2022-09-03T04:33:13;1.20;;;1.10;;
6665;SDS011;3369;49.906;8.598;2022-09-03T04:35:38;1.30;;;1.07;;
6665;SDS011;3369;49.906;8.598;2022-09-03T04:38:06;0.93;;;0.90;;
6665;SDS011;3369;49.906;8.598;2022-09-03T04:40:31;0.80;;;0.80;;
6665;SDS011;3369;49.906;8.598;2022-09-03T04:42:57;1.00;;;0.90;;
6665;SDS011;3369;49.906;8.598;2022-09-03T04:45:23;1.07;;;0.90;;
6665;SDS011;3369;49.906;8.598;2022-09-03T04:47:59;1.90;;;0.70;;
6665;SDS011;3369;49.906;8.598;2022-09-03T04:50:26;1.80;;;1.30;;
6665;SDS011;3369;49.906;8.598;2022-09-03T04:52:54;1.97;;;0.90;;
6665;SDS011;3369;49.906;8.598;2022-09-03T04:55:22;2.53;;;1.20;;
6665;SDS011;3369;49.906;8.598;2022-09-03T04:57:47;1.90;;;1.00;;
6665;SDS011;3369;49.906;8.598;2022-09-03T05:00:13;0.80;;;0.80;;
6665;SDS011;3369;49.906;8.598;2022-09-03T05:02:42;1.13;;;1.07;;
6665;SDS011;3369;49.906;8.598;2022-09-03T05:05:11;1.23;;;0.80;;
6665;SDS011;3369;49.906;8.598;2022-09-03T05:07:37;1.20;;;1.10;;
6665;SDS011;3369;49.906;8.598;2022-09-03T05:10:04;1.73;;;1.00;;
6665;SDS011;3369;49.906;8.598;2022-09-03T05:12:31;1.10;;;1.00;;
6665;SDS011;3369;49.906;8.598;2022-09-03T05:14:57;0.83;;;0.80;;
6665;SDS011;3369;49.906;8.598;2022-09-03T05:17:24;0.97;;;0.97;;
6665;SDS011;3369;49.906;8.598;2022-09-03T05:19:50;1.10;;;1.00;;
6665;SDS011;3369;49.906;8.598;2022-09-03T05:22:16;1.13;;;1.00;;
6665;SDS011;3369;49.906;8.598;2022-09-03T05:24:45;0.80;;;0.80;;
6665;SDS011;3369;49.906;8.598;2022-09-03T05:27:12;1.20;;;1.10;;
6665;SDS011;3369;49.906;8.598;2022-09-03T05:29:41;0.83;;;0.83;;
6665;SDS011;3369;49.906;8.598;2022-09-03T05:32:07;1.90;;;1.10;;
6665;SDS011;3369;49.906;8.598;2022-09-03T05:34:33;1.77;;;1.30;;
6665;SDS011;3369;49.906;8.598;2022-09-03T05:36:59;0.97;;;0.97;;
6665;SDS011;3369;49.906;8.598;2022-09-03T05:39:24;3.07;;;1.17;;
6665;SDS011;3369;49.906;8.598;2022-09-03T05:41:50;1.10;;;1.00;;
6665;SDS011;3369;49.906;8.598;2022-09-03T05:44:16;2.40;;;0.90;;
6665;SDS011;3369;49.906;8.598;2022-09-03T05:46:42;1.77;;;0.90;;
6665;SDS011;3369;49.906;8.598;2022-09-03T05:49:07;0.97;;;0.90;;
6665;SDS011;3369;49.906;8.598;2022-09-03T05:51:35;1.30;;;1.20;;
6665;SDS011;3369;49.906;8.598;2022-09-03T05:54:03;3.70;;;1.30;;
6665;SDS011;3369;49.906;8.598;2022-09-03T05:56:30;1.70;;;1.00;;
6665;SDS011;3369;49.906;8.598;2022-09-03T05:58:57;0.90;;;0.90;;
6665;SDS011;3369;49.906;8.598;2022-09-03T06:01:29;1.53;;;0.80;;
6665;SDS011;3369;49.906;8.598;2022-09-03T06:03:58;0.80;;;0.80;;
6665;SDS011;3369;49.906;8.598;2022-09-03T06:06:25;1.40;;;1.00;;
6665;SDS011;3369;49.906;8.598;2022-09-03T06:08:53;1.10;;;1.00;;
6665;SDS011;3369;49.906;8.598;2022-09-03T06:11:22;1.33;;;1.20;;
6665;SDS011;3369;49.906;8.598;2022-09-03T06:13:50;1.10;;;1.10;;
6665;SDS011;3369;49.906;8.598;2022-09-03T06:16:16;1.00;;;1.00;;
6665;SDS011;3369;49.906;8.598;2022-09-03T06:18:42;1.73;;;1.00;;
6665;SDS011;3369;49.906;8.598;2022-09-03T06:21:08;1.23;;;1.10;;
6665;SDS011;3369;49.906;8.598;2022-09-03T06:23:34;1.30;;;1.20;;
6665;SDS011;3369;49.906;8.598;2022-09-03T06:28:33;1.33;;;1.00;;
6665;SDS011;3369;49.906;8.598;2022-09-03T06:31:00;1.37;;;1.10;;
6665;SDS011;3369;49.906;8.598;2022-09-03T06:33:27;1.67;;;0.90;;
6665;SDS011;3369;49.906;8.598;2022-09-03T06:35:57;1.57;;;1.00;;
6665;SDS011;3369;49.906;8.598;2022-09-03T06:38:24;0.90;;;0.90;;
6665;SDS011;3369;49.906;8.598;2022-09-03T06:40:55;0.90;;;0.90;;
6665;SDS011;3369;49.906;8.598;2022-09-03T06:43:26;1.07;;;0.97;;
6665;SDS011;3369;49.906;8.598;2022-09-03T06:45:54;1.33;;;1.20;;
6665;SDS011;3369;49.906;8.598;2022-09-03T06:48:24;1.13;;;1.03;;
6665;SDS011;3369;49.906;8.598;2022-09-03T06:51:01;1.10;;;1.00;;
6665;SDS011;3369;49.906;8.598;2022-09-03T06:53:33;3.43;;;2.60;;
6665;SDS011;3369;49.906;8.598;2022-09-03T06:56:01;3.77;;;2.10;;
6665;SDS011;3369;49.906;8.598;2022-09-03T06:58:30;2.27;;;1.80;;
6665;SDS011;3369;49.906;8.598;2022-09-03T07:01:10;1.77;;;1.67;;
6665;SDS011;3369;49.906;8.598;2022-09-03T07:03:38;1.40;;;1.30;;
6665;SDS011;3369;49.906;8.598;2022-09-03T07:06:14;1.67;;;1.33;;
6665;SDS011;3369;49.906;8.598;2022-09-03T07:08:41;2.47;;;1.20;;
6665;SDS011;3369;49.906;8.598;2022-09-03T07:11:09;1.97;;;1.67;;
6665;SDS011;3369;49.906;8.598;2022-09-03T07:13:38;1.80;;;1.50;;
6665;SDS011;3369;49.906;8.598;2022-09-03T07:16:09;1.40;;;1.30;;
6665;SDS011;3369;49.906;8.598;2022-09-03T07:18:40;1.57;;;1.20;;
6665;SDS011;3369;49.906;8.598;2022-09-03T07:21:08;1.40;;;1.30;;
6665;SDS011;3369;49.906;8.598;2022-09-03T07:23:38;1.33;;;1.30;;
6665;SDS011;3369;49.906;8.598;2022-09-03T07:26:06;1.20;;;1.10;;
6665;SDS011;3369;49.906;8.598;2022-09-03T07:28:35;1.43;;;1.10;;
6665;SDS011;3369;49.906;8.598;2022-09-03T07:31:03;1.20;;;1.10;;
6665;SDS011;3369;49.906;8.598;2022-09-03T07:33:34;1.50;;;1.40;;
6665;SDS011;3369;49.906;8.598;2022-09-03T07:36:03;1.57;;;1.30;;
6665;SDS011;3369;49.906;8.598;2022-09-03T07:38:31;1.10;;;1.10;;
6665;SDS011;3369;49.906;8.598;2022-09-03T07:41:01;2.43;;;1.40;;
6665;SDS011;3369;49.906;8.598;2022-09-03T07:43:31;1.00;;;1.00;;
6665;SDS011;3369;49.906;8.598;2022-09-03T07:46:04;1.47;;;1.30;;
6665;SDS011;3369;49.906;8.598;2022-09-03T07:48:31;1.40;;;1.30;;
6665;SDS011;3369;49.906;8.598;2022-09-03T07:50:59;1.43;;;1.33;;
6665;SDS011;3369;49.906;8.598;2022-09-03T07:53:26;1.80;;;1.70;;
6665;SDS011;3369;49.906;8.598;2022-09-03T07:55:53;3.30;;;1.90;;
6665;SDS011;3369;49.906;8.598;2022-09-03T07:58:20;2.47;;;1.87;;
6665;SDS011;3369;49.906;8.598;2022-09-03T08:00:48;1.73;;;1.50;;
6665;SDS011;3369;49.906;8.598;2022-09-03T08:03:14;4.07;;;1.80;;
6665;SDS011;3369;49.906;8.598;2022-09-03T08:05:40;1.57;;;1.47;;
6665;SDS011;3369;49.906;8.598;2022-09-03T08:08:06;2.20;;;2.00;;
6665;SDS011;3369;49.906;8.598;2022-09-03T08:10:35;2.23;;;1.80;;
6665;SDS011;3369;49.906;8.598;2022-09-03T08:13:02;2.67;;;1.87;;
6665;SDS011;3369;49.906;8.598;2022-09-03T08:15:31;1.93;;;1.67;;
6665;SDS011;3369;49.906;8.598;2022-09-03T08:17:58;2.27;;;1.60;;
6665;SDS011;3369;49.906;8.598;2022-09-03T08:20:24;3.07;;;1.60;;
6665;SDS011;3369;49.906;8.598;2022-09-03T08:22:51;1.70;;;1.60;;
6665;SDS011;3369;49.906;8.598;2022-09-03T08:25:17;1.60;;;1.50;;
6665;SDS011;3369;49.906;8.598;2022-09-03T08:27:43;1.60;;;1.50;;
6665;SDS011;3369;49.906;8.598;2022-09-03T08:30:09;1.50;;;1.40;;
6665;SDS011;3369;49.906;8.598;2022-09-03T08:32:39;3.63;;;1.97;;
6665;SDS011;3369;49.906;8.598;2022-09-03T08:35:05;2.03;;;1.57;;
6665;SDS011;3369;49.906;8.598;2022-09-03T08:37:33;2.60;;;1.60;;
6665;SDS011;3369;49.906;8.598;2022-09-03T08:39:59;2.00;;;1.70;;
6665;SDS011;3369;49.906;8.598;2022-09-03T08:45:04;2.80;;;1.93;;
6665;SDS011;3369;49.906;8.598;2022-09-03T08:47:39;2.53;;;1.70;;
6665;SDS011;3369;49.906;8.598;2022-09-03T08:50:21;2.40;;;1.90;;
6665;SDS011;3369;49.906;8.598;2022-09-03T08:55:30;2.50;;;1.77;;
6665;SDS011;3369;49.906;8.598;2022-09-03T09:08:46;5.63;;;2.57;;
6665;SDS011;3369;49.906;8.598;2022-09-03T09:13:57;2.20;;;2.00;;
6665;SDS011;3369;49.906;8.598;2022-09-03T09:22:29;1.90;;;1.80;;
6665;SDS011;3369;49.906;8.598;2022-09-03T09:25:03;1.90;;;1.80;;
6665;SDS011;3369;49.906;8.598;2022-09-03T09:27:39;2.07;;;1.90;;
6665;SDS011;3369;49.906;8.598;2022-09-03T09:30:20;1.97;;;1.60;;
6665;SDS011;3369;49.906;8.598;2022-09-03T09:32:45;1.87;;;1.73;;
6665;SDS011;3369;49.906;8.598;2022-09-03T09:35:11;1.50;;;1.40;;
6665;SDS011;3369;49.906;8.598;2022-09-03T09:37:52;3.17;;;2.03;;
6665;SDS011;3369;49.906;8.598;2022-09-03T09:40:24;2.07;;;1.97;;
6665;SDS011;3369;49.906;8.598;2022-09-03T09:45:39;2.00;;;1.90;;
6665;SDS011;3369;49.906;8.598;2022-09-03T09:48:08;1.73;;;1.63;;
6665;SDS011;3369;49.906;8.598;2022-09-03T09:50:46;1.63;;;1.53;;
6665;SDS011;3369;49.906;8.598;2022-09-03T09:53:11;1.70;;;1.60;;
6665;SDS011;3369;49.906;8.598;2022-09-03T09:55:55;2.00;;;1.90;;
6665;SDS011;3369;49.906;8.598;2022-09-03T09:58:23;1.87;;;1.70;;
6665;SDS011;3369;49.906;8.598;2022-09-03T10:01:00;3.00;;;2.30;;
6665;SDS011;3369;49.906;8.598;2022-09-03T10:03:48;2.03;;;1.93;;
6665;SDS011;3369;49.906;8.598;2022-09-03T10:06:21;1.70;;;1.60;;
6665;SDS011;3369;49.906;8.598;2022-09-03T10:09:11;3.17;;;1.90;;
6665;SDS011;3369;49.906;8.598;2022-09-03T10:11:48;2.00;;;1.87;;
6665;SDS011;3369;49.906;8.598;2022-09-03T10:14:25;1.90;;;1.80;;
6665;SDS011;3369;49.906;8.598;2022-09-03T10:17:10;1.83;;;1.73;;
6665;SDS011;3369;49.906;8.598;2022-09-03T10:19:45;1.80;;;1.63;;
6665;SDS011;3369;49.906;8.598;2022-09-03T10:22:49;4.50;;;2.20;;
6665;SDS011;3369;49.906;8.598;2022-09-03T10:28:31;2.30;;;1.80;;
6665;SDS011;3369;49.906;8.598;2022-09-03T10:37:03;2.80;;;2.30;;
6665;SDS011;3369;49.906;8.598;2022-09-03T10:46:13;1.70;;;1.60;;
6665;SDS011;3369;49.906;8.598;2022-09-03T10:49:00;2.50;;;2.30;;
6665;SDS011;3369;49.906;8.598;2022-09-03T10:52:13;1.80;;;1.70;;
6665;SDS011;3369;49.906;8.598;2022-09-03T11:00:18;2.33;;;2.07;;
6665;SDS011;3369;49.906;8.598;2022-09-03T11:08:17;2.90;;;2.40;;
6665;SDS011;3369;49.906;8.598;2022-09-03T11:10:54;2.30;;;2.10;;
6665;SDS011;3369;49.906;8.598;2022-09-03T11:13:33;4.17;;;2.47;;
6665;SDS011;3369;49.906;8.598;2022-09-03T11:16:12;2.20;;;2.10;;
6665;SDS011;3369;49.906;8.598;2022-09-03T11:18:49;2.70;;;2.27;;
6665;SDS011;3369;49.906;8.598;2022-09-03T11:21:27;2.27;;;2.07;;
6665;SDS011;3369;49.906;8.598;2022-09-03T11:24:05;2.57;;;2.37;;
6665;SDS011;3369;49.906;8.598;2022-09-03T11:26:37;2.37;;;1.50;;
6665;SDS011;3369;49.906;8.598;2022-09-03T11:29:06;2.53;;;1.80;;
6665;SDS011;3369;49.906;8.598;2022-09-03T11:37:14;2.10;;;2.00;;
6665;SDS011;3369;49.906;8.598;2022-09-03T11:40:07;2.15;;;1.85;;
6665;SDS011;3369;49.906;8.598;2022-09-03T11:42:42;2.65;;;2.25;;
6665;SDS011;3369;49.906;8.598;2022-09-03T11:45:13;2.60;;;2.30;;
6665;SDS011;3369;49.906;8.598;2022-09-03T11:47:47;2.35;;;2.15;;
6665;SDS011;3369;49.906;8.598;2022-09-03T11:50:18;2.97;;;2.17;;
6665;SDS011;3369;49.906;8.598;2022-09-03T11:52:48;5.25;;;2.65;;
6665;SDS011;3369;49.906;8.598;2022-09-03T11:55:28;2.05;;;1.95;;
6665;SDS011;3369;49.906;8.598;2022-09-03T11:57:57;2.00;;;1.90;;
6665;SDS011;3369;49.906;8.598;2022-09-03T12:00:44;1.98;;;1.77;;
6665;SDS011;3369;49.906;8.598;2022-09-03T12:03:12;1.60;;;1.50;;
6665;SDS011;3369;49.906;8.598;2022-09-03T12:05:48;2.13;;;1.90;;
6665;SDS011;3369;49.906;8.598;2022-09-03T12:11:43;1.60;;;1.50;;
6665;SDS011;3369;49.906;8.598;2022-09-03T12:17:14;2.47;;;2.33;;
6665;SDS011;3369;49.906;8.598;2022-09-03T12:19:52;2.08;;;1.98;;
6665;SDS011;3369;49.906;8.598;2022-09-03T12:22:21;2.45;;;2.30;;
6665;SDS011;3369;49.906;8.598;2022-09-03T12:24:49;2.10;;;2.00;;
6665;SDS011;3369;49.906;8.598;2022-09-03T12:27:18;2.42;;;2.22;;
6665;SDS011;3369;49.906;8.598;2022-09-03T12:30:13;2.53;;;1.80;;
6665;SDS011;3369;49.906;8.598;2022-09-03T12:32:41;1.75;;;1.65;;
6665;SDS011;3369;49.906;8.598;2022-09-03T12:35:11;1.60;;;1.50;;
6665;SDS011;3369;49.906;8.598;2022-09-03T12:37:40;1.85;;;1.75;;
6665;SDS011;3369;49.906;8.598;2022-09-03T12:40:15;1.70;;;1.60;;
6665;SDS011;3369;49.906;8.598;2022-09-03T12:42:43;1.80;;;1.70;;
6665;SDS011;3369;49.906;8.598;2022-09-03T12:45:09;1.48;;;1.38;;
6665;SDS011;3369;49.906;8.598;2022-09-03T12:47:39;1.70;;;1.60;;
6665;SDS011;3369;49.906;8.598;2022-09-03T12:50:10;2.33;;;1.60;;
6665;SDS011;3369;49.906;8.598;2022-09-03T12:52:43;1.60;;;1.50;;
6665;SDS011;3369;49.906;8.598;2022-09-03T12:58:20;1.25;;;1.25;;
6665;SDS011;3369;49.906;8.598;2022-09-03T13:00:54;2.10;;;1.80;;
6665;SDS011;3369;49.906;8.598;2022-09-03T13:03:28;1.92;;;1.83;;
6665;SDS011;3369;49.906;8.598;2022-09-03T13:06:00;2.75;;;2.03;;
6665;SDS011;3369;49.906;8.598;2022-09-03T13:08:37;1.55;;;1.45;;
6665;SDS011;3369;49.906;8.598;2022-09-03T13:11:09;2.95;;;1.92;;
6665;SDS011;3369;49.906;8.598;2022-09-03T13:13:47;4.82;;;2.05;;
6665;SDS011;3369;49.906;8.598;2022-09-03T13:30:12;1.40;;;1.38;;
6665;SDS011;3369;49.906;8.598;2022-09-03T13:35:17;2.80;;;1.50;;
6665;SDS011;3369;49.906;8.598;2022-09-03T13:41:02;1.58;;;1.48;;
6665;SDS011;3369;49.906;8.598;2022-09-03T13:46:34;1.90;;;1.55;;
6665;SDS011;3369;49.906;8.598;2022-09-03T14:13:09;1.20;;;1.15;;
6665;SDS011;3369;49.906;8.598;2022-09-03T14:15:59;1.83;;;1.50;;
6665;SDS011;3369;49.906;8.598;2022-09-03T14:21:38;1.80;;;1.40;;
6665;SDS011;3369;49.906;8.598;2022-09-03T14:27:05;1.50;;;1.40;;
6665;SDS011;3369;49.906;8.598;2022-09-03T14:29:32;1.38;;;1.27;;
6665;SDS011;3369;49.906;8.598;2022-09-03T14:32:14;1.23;;;1.23;;
6665;SDS011;3369;49.906;8.598;2022-09-03T14:38:04;1.60;;;1.50;;
6665;SDS011;3369;49.906;8.598;2022-09-03T14:54:00;1.90;;;1.45;;
6665;SDS011;3369;49.906;8.598;2022-09-03T14:56:43;1.30;;;1.30;;
6665;SDS011;3369;49.906;8.598;2022-09-03T14:59:21;1.58;;;1.30;;
6665;SDS011;3369;49.906;8.598;2022-09-03T15:04:54;1.60;;;1.50;;
6665;SDS011;3369;49.906;8.598;2022-09-03T15:07:58;1.58;;;1.45;;
6665;SDS011;3369;49.906;8.598;2022-09-03T15:10:45;2.60;;;1.58;;
6665;SDS011;3369;49.906;8.598;2022-09-03T15:13:22;2.55;;;1.60;;
6665;SDS011;3369;49.906;8.598;2022-09-03T15:18:29;1.70;;;1.60;;
6665;SDS011;3369;49.906;8.598;2022-09-03T15:21:25;2.17;;;1.50;;
6665;SDS011;3369;49.906;8.598;2022-09-03T15:26:54;1.52;;;1.42;;
6665;SDS011;3369;49.906;8.598;2022-09-03T15:29:48;1.55;;;1.45;;
6665;SDS011;3369;49.906;8.598;2022-09-03T15:32:27;1.60;;;1.50;;
6665;SDS011;3369;49.906;8.598;2022-09-03T15:38:12;1.65;;;1.55;;
6665;SDS011;3369;49.906;8.598;2022-09-03T15:40:49;3.08;;;1.58;;
6665;SDS011;3369;49.906;8.598;2022-09-03T15:43:24;1.55;;;1.45;;
6665;SDS011;3369;49.906;8.598;2022-09-03T15:46:03;1.67;;;1.58;;
6665;SDS011;3369;49.906;8.598;2022-09-03T15:51:24;1.58;;;1.45;;
6665;SDS011;3369;49.906;8.598;2022-09-03T15:56:42;1.95;;;1.73;;
6665;SDS011;3369;49.906;8.598;2022-09-03T16:10:19;1.90;;;1.80;;
6665;SDS011;3369;49.906;8.598;2022-09-03T16:13:00;1.77;;;1.67;;
6665;SDS011;3369;49.906;8.598;2022-09-03T16:16:03;1.60;;;1.50;;
6665;SDS011;3369;49.906;8.598;2022-09-03T16:18:35;1.88;;;1.77;;
6665;SDS011;3369;49.906;8.598;2022-09-03T16:23:48;2.20;;;1.65;;
6665;SDS011;3369;49.906;8.598;2022-09-03T16:26:53;1.70;;;1.60;;
6665;SDS011;3369;49.906;8.598;2022-09-03T16:29:27;1.70;;;1.60;;
6665;SDS011;3369;49.906;8.598;2022-09-03T16:32:01;2.22;;;1.98;;
6665;SDS011;3369;49.906;8.598;2022-09-03T16:37:54;1.80;;;1.70;;
6665;SDS011;3369;49.906;8.598;2022-09-03T16:46:10;1.80;;;1.70;;
6665;SDS011;3369;49.906;8.598;2022-09-03T17:05:21;0.33;;;0.33;;
6665;SDS011;3369;49.906;8.598;2022-09-03T17:10:44;0.43;;;0.43;;
6665;SDS011;3369;49.906;8.598;2022-09-03T17:13:17;1.17;;;0.90;;
6665;SDS011;3369;49.906;8.598;2022-09-03T17:21:33;0.70;;;0.40;;
6665;SDS011;3369;49.906;8.598;2022-09-03T17:41:18;0.50;;;0.50;;
6665;SDS011;3369;49.906;8.598;2022-09-03T17:44:08;0.40;;;0.40;;
6665;SDS011;3369;49.906;8.598;2022-09-03T17:49:51;0.40;;;0.40;;
6665;SDS011;3369;49.906;8.598;2022-09-03T17:52:31;0.20;;;0.20;;
6665;SDS011;3369;49.906;8.598;2022-09-03T17:58:23;0.30;;;0.30;;
6665;SDS011;3369;49.906;8.598;2022-09-03T18:00:59;1.03;;;0.40;;
6665;SDS011;3369;49.906;8.598;2022-09-03T18:03:29;0.30;;;0.30;;
6665;SDS011;3369;49.906;8.598;2022-09-03T18:06:19;0.40;;;0.37;;
6665;SDS011;3369;49.906;8.598;2022-09-03T18:11:40;0.30;;;0.30;;
6665;SDS011;3369;49.906;8.598;2022-09-03T18:14:16;0.47;;;0.47;;
6665;SDS011;3369;49.906;8.598;2022-09-03T18:16:58;0.30;;;0.30;;
6665;SDS011;3369;49.906;8.598;2022-09-03T18:19:34;0.43;;;0.43;;
6665;SDS011;3369;49.906;8.598;2022-09-03T18:22:30;1.43;;;0.50;;
6665;SDS011;3369;49.906;8.598;2022-09-03T18:25:21;1.23;;;0.80;;
6665;SDS011;3369;49.906;8.598;2022-09-03T18:28:09;1.90;;;1.63;;
6665;SDS011;3369;49.906;8.598;2022-09-03T18:30:59;1.27;;;1.17;;
6665;SDS011;3369;49.906;8.598;2022-09-03T18:33:43;1.13;;;1.03;;
6665;SDS011;3369;49.906;8.598;2022-09-03T18:36:29;1.20;;;1.10;;
6665;SDS011;3369;49.906;8.598;2022-09-03T18:39:25;1.50;;;0.90;;
6665;SDS011;3369;49.906;8.598;2022-09-03T18:45:34;1.70;;;1.50;;
6665;SDS011;3369;49.906;8.598;2022-09-03T18:48:42;1.30;;;1.20;;
6665;SDS011;3369;49.906;8.598;2022-09-03T18:51:57;1.20;;;0.90;;
6665;SDS011;3369;49.906;8.598;2022-09-03T19:00:46;0.60;;;0.60;;
6665;SDS011;3369;49.906;8.598;2022-09-03T19:06:41;0.50;;;0.50;;
6665;SDS011;3369;49.906;8.598;2022-09-03T19:22:09;0.53;;;0.53;;
6665;SDS011;3369;49.906;8.598;2022-09-03T19:25:05;0.70;;;0.70;;
6665;SDS011;3369;49.906;8.598;2022-09-03T19:37:24;0.70;;;0.70;;
6665;SDS011;3369;49.906;8.598;2022-09-03T19:40:22;0.60;;;0.60;;
6665;SDS011;3369;49.906;8.598;2022-09-03T19:55:21;0.80;;;0.80;;
6665;SDS011;3369;49.906;8.598;2022-09-03T19:58:08;0.90;;;0.90;;
6665;SDS011;3369;49.906;8.598;2022-09-03T20:01:00;0.80;;;0.80;;
6665;SDS011;3369;49.906;8.598;2022-09-03T20:03:44;0.73;;;0.73;;
6665;SDS011;3369;49.906;8.598;2022-09-03T20:06:28;0.80;;;0.80;;
6665;SDS011;3369;49.906;8.598;2022-09-03T20:09:16;0.93;;;0.83;;
6665;SDS011;3369;49.906;8.598;2022-09-03T20:12:04;0.90;;;0.90;;
6665;SDS011;3369;49.906;8.598;2022-09-03T20:14:33;0.73;;;0.73;;
6665;SDS011;3369;49.906;8.598;2022-09-03T20:17:26;0.80;;;0.70;;
6665;SDS011;3369;49.906;8.598;2022-09-03T20:19:56;0.93;;;0.80;;
6665;SDS011;3369;49.906;8.598;2022-09-03T20:23:03;0.80;;;0.80;;
6665;SDS011;3369;49.906;8.598;2022-09-03T20:34:13;1.87;;;1.20;;
6665;SDS011;3369;49.906;8.598;2022-09-03T20:37:03;2.47;;;1.50;;
6665;SDS011;3369;49.906;8.598;2022-09-03T20:43:00;0.97;;;0.90;;
6665;SDS011;3369;49.906;8.598;2022-09-03T20:51:15;0.97;;;0.90;;
6665;SDS011;3369;49.906;8.598;2022-09-03T20:56:41;0.70;;;0.70;;
6665;SDS011;3369;49.906;8.598;2022-09-03T21:16:08;1.63;;;1.50;;
6665;SDS011;3369;49.906;8.598;2022-09-03T21:18:58;0.90;;;0.90;;
6665;SDS011;3369;49.906;8.598;2022-09-03T21:22:07;0.90;;;0.90;;
6665;SDS011;3369;49.906;8.598;2022-09-03T21:24:36;0.90;;;0.90;;
6665;SDS011;3369;49.906;8.598;2022-09-03T21:27:37;1.20;;;0.73;;
6665;SDS011;3369;49.906;8.598;2022-09-03T21:30:17;1.10;;;0.80;;
6665;SDS011;3369;49.906;8.598;2022-09-03T21:32:51;0.80;;;0.80;;
6665;SDS011;3369;49.906;8.598;2022-09-03T21:35:29;1.83;;;1.00;;
6665;SDS011;3369;49.906;8.598;2022-09-03T21:40:42;0.70;;;0.70;;
6665;SDS011;3369;49.906;8.598;2022-09-03T21:43:22;0.70;;;0.70;;
6665;SDS011;3369;49.906;8.598;2022-09-03T21:45:55;1.63;;;0.90;;
6665;SDS011;3369;49.906;8.598;2022-09-03T21:51:15;0.80;;;0.80;;
6665;SDS011;3369;49.906;8.598;2022-09-03T21:54:05;0.70;;;0.70;;
6665;SDS011;3369;49.906;8.598;2022-09-03T21:56:50;1.77;;;0.90;;
6665;SDS011;3369;49.906;8.598;2022-09-03T22:01:48;0.93;;;0.90;;
6665;SDS011;3369;49.906;8.598;2022-09-03T22:04:19;0.70;;;0.70;;
6665;SDS011;3369;49.906;8.598;2022-09-03T22:12:37;0.90;;;0.87;;
6665;SDS011;3369;49.906;8.598;2022-09-03T22:15:21;1.93;;;0.90;;
6665;SDS011;3369;49.906;8.598;2022-09-03T22:17:50;0.80;;;0.80;;
6665;SDS011;3369;49.906;8.598;2022-09-03T22:20:25;0.70;;;0.70;;
6665;SDS011;3369;49.906;8.598;2022-09-03T22:28:20;0.90;;;0.90;;
6665;SDS011;3369;49.906;8.598;2022-09-03T22:31:00;0.93;;;0.87;;
6665;SDS011;3369;49.906;8.598;2022-09-03T22:38:47;1.53;;;1.20;;
6665;SDS011;3369;49.906;8.598;2022-09-03T22:41:40;1.33;;;1.00;;
6665;SDS011;3369;49.906;8.598;2022-09-03T22:49:59;1.30;;;1.20;;
6665;SDS011;3369;49.906;8.598;2022-09-03T22:52:48;1.20;;;1.10;;
6665;SDS011;3369;49.906;8.598;2022-09-03T22:55:19;1.90;;;1.13;;
6665;SDS011;3369;49.906;8.598;2022-09-03T22:57:50;1.00;;;1.00;;